createdAt,value
2023-03-29T00:01:35.547Z,55.50
2023-03-29T00:04:04.528Z,55.12
2023-03-29T00:06:31.065Z,55.12
2023-03-29T00:08:57.367Z,55.14
2023-03-29T00:11:23.786Z,55.51
2023-03-29T00:13:50.282Z,55.69
2023-03-29T00:16:16.927Z,55.06
2023-03-29T00:18:43.973Z,55.58
2023-03-29T00:21:10.932Z,55.03
2023-03-29T00:23:37.307Z,55.53
2023-03-29T00:26:05.316Z,56.93
2023-03-29T00:28:33.568Z,56.56
2023-03-29T00:31:05.262Z,56.75
2023-03-29T00:33:31.896Z,56.43
2023-03-29T00:35:58.301Z,57.94
2023-03-29T00:38:24.656Z,57.86
2023-03-29T00:40:50.984Z,57.90
2023-03-29T00:43:17.414Z,58.14
2023-03-29T00:45:43.725Z,58.05
2023-03-29T00:48:17.200Z,58.73
2023-03-29T00:50:48.623Z,58.91
2023-03-29T00:53:27.361Z,58.14
2023-03-29T00:56:05.450Z,58.92
2023-03-29T00:58:37.206Z,58.20
2023-03-29T01:01:07.693Z,58.95
2023-03-29T01:03:42.211Z,58.14
2023-03-29T01:06:10.398Z,58.49
2023-03-29T01:08:52.816Z,59.69
2023-03-29T01:11:24.762Z,60.70
2023-03-29T01:14:02.892Z,58.86
2023-03-29T01:16:31.494Z,59.42
2023-03-29T01:18:57.901Z,58.51
2023-03-29T01:21:42.994Z,59.12
2023-03-29T01:24:51.571Z,59.53
2023-03-29T01:27:50.279Z,59.59
2023-03-29T01:30:22.805Z,58.42
2023-03-29T01:32:57.245Z,58.46
2023-03-29T01:35:46.689Z,59.46
2023-03-29T01:38:18.730Z,58.36
2023-03-29T01:40:45.152Z,58.88
2023-03-29T01:43:21.811Z,58.54
2023-03-29T01:45:58.461Z,60.14
2023-03-29T01:48:30.666Z,58.85
2023-03-29T01:51:16.011Z,60.77
2023-03-29T01:53:49.482Z,60.71
2023-03-29T01:56:26.328Z,59.25
2023-03-29T01:58:57.950Z,59.82
2023-03-29T02:01:27.999Z,59.67
2023-03-29T02:03:59.126Z,61.01
2023-03-29T02:06:27.836Z,59.82
2023-03-29T02:08:54.792Z,59.99
2023-03-29T02:11:24.202Z,61.67
2023-03-29T02:13:50.504Z,61.46
2023-03-29T02:16:17.371Z,62.19
2023-03-29T02:18:46.104Z,62.09
2023-03-29T02:21:19.654Z,64.26
2023-03-29T02:23:46.728Z,62.45
2023-03-29T02:26:13.737Z,63.56
2023-03-29T02:28:41.729Z,64.44
2023-03-29T02:31:16.343Z,64.27
2023-03-29T02:33:56.921Z,67.04
2023-03-29T02:36:29.518Z,65.19
2023-03-29T02:38:59.040Z,64.82
2023-03-29T02:41:26.604Z,65.34
2023-03-29T02:43:55.485Z,64.68
2023-03-29T02:46:22.080Z,68.00
2023-03-29T02:48:51.027Z,65.99
2023-03-29T02:51:24.347Z,65.55
2023-03-29T02:54:01.725Z,68.38
2023-03-29T02:56:28.135Z,68.16
2023-03-29T02:58:54.500Z,66.57
2023-03-29T03:01:20.945Z,67.40
2023-03-29T03:03:47.695Z,69.46
2023-03-29T03:06:14.014Z,72.01
2023-03-29T03:08:40.406Z,70.29
2023-03-29T03:11:06.708Z,70.18
2023-03-29T03:13:32.998Z,72.93
2023-03-29T03:15:59.413Z,71.02
2023-03-29T03:18:25.757Z,72.00
2023-03-29T03:20:59.410Z,71.17
2023-03-29T03:23:26.013Z,71.08
2023-03-29T03:25:52.658Z,73.37
2023-03-29T03:28:20.024Z,73.57
2023-03-29T03:30:46.308Z,75.28
2023-03-29T03:33:12.600Z,73.21
2023-03-29T03:35:39.185Z,73.74
2023-03-29T03:38:05.541Z,73.44
2023-03-29T03:40:32.225Z,73.47
2023-03-29T03:42:58.514Z,72.90
2023-03-29T03:45:24.838Z,72.73
2023-03-29T03:47:51.760Z,72.32
2023-03-29T03:50:18.248Z,72.48
2023-03-29T03:52:44.702Z,73.07
2023-03-29T03:55:11.047Z,74.59
2023-03-29T03:57:37.449Z,72.02
2023-03-29T04:00:05.589Z,73.84
2023-03-29T04:02:31.937Z,72.93
2023-03-29T04:04:58.288Z,72.61
2023-03-29T04:07:24.613Z,73.27
2023-03-29T04:09:50.926Z,72.60
2023-03-29T04:12:17.228Z,71.89
2023-03-29T04:14:43.521Z,73.15
2023-03-29T04:17:09.789Z,74.97
2023-03-29T04:19:36.117Z,74.78
2023-03-29T04:22:02.393Z,73.70
2023-03-29T04:24:28.790Z,75.14
2023-03-29T04:26:55.068Z,74.97
2023-03-29T04:29:21.369Z,74.99
2023-03-29T04:31:47.783Z,73.32
2023-03-29T04:34:14.132Z,74.71
2023-03-29T04:36:40.449Z,74.99
2023-03-29T04:39:06.860Z,73.30
2023-03-29T04:41:33.930Z,74.05
2023-03-29T04:44:00.488Z,73.98
2023-03-29T04:46:26.985Z,73.90
2023-03-29T04:48:53.610Z,73.56
2023-03-29T04:51:20.262Z,73.78
2023-03-29T04:53:46.561Z,74.06
2023-03-29T04:56:13.016Z,74.08
2023-03-29T04:58:39.307Z,75.11
2023-03-29T05:01:05.878Z,76.00
2023-03-29T05:03:32.367Z,74.81
2023-03-29T05:06:10.004Z,75.33
2023-03-29T05:08:37.595Z,75.94
2023-03-29T05:11:04.192Z,75.24
2023-03-29T05:13:30.801Z,75.43
2023-03-29T05:15:57.238Z,76.16
2023-03-29T05:18:23.592Z,75.81
2023-03-29T05:20:51.492Z,77.09
2023-03-29T05:23:17.808Z,75.95
2023-03-29T05:25:44.098Z,75.83
2023-03-29T05:28:10.370Z,76.03
2023-03-29T05:30:36.686Z,76.25
2023-03-29T05:33:03.111Z,74.67
2023-03-29T05:35:29.510Z,75.75
2023-03-29T05:37:55.884Z,75.50
2023-03-29T05:40:22.486Z,75.88
2023-03-29T05:42:48.854Z,76.01
2023-03-29T05:45:15.146Z,76.33
2023-03-29T05:47:41.600Z,76.77
2023-03-29T05:50:08.945Z,75.59
2023-03-29T05:52:35.241Z,76.26
2023-03-29T05:55:02.660Z,75.51
2023-03-29T05:57:29.165Z,75.69
2023-03-29T05:59:55.544Z,75.10
2023-03-29T06:02:22.984Z,74.95
2023-03-29T06:04:49.382Z,73.79
2023-03-29T06:07:15.724Z,75.00
2023-03-29T06:09:42.033Z,74.37
2023-03-29T06:12:08.591Z,73.20
2023-03-29T06:14:34.965Z,73.86
2023-03-29T06:17:01.402Z,74.38
2023-03-29T06:19:27.778Z,72.80
2023-03-29T06:21:54.122Z,73.06
2023-03-29T06:24:20.463Z,72.85
2023-03-29T06:26:46.857Z,71.75
2023-03-29T06:29:13.181Z,72.50
2023-03-29T06:31:39.681Z,72.29
2023-03-29T06:34:06.019Z,72.19
2023-03-29T06:36:32.312Z,72.42
2023-03-29T06:38:58.688Z,72.20
2023-03-29T06:41:25.010Z,71.94
2023-03-29T06:43:51.405Z,71.34
2023-03-29T06:46:17.714Z,72.74
2023-03-29T06:48:44.168Z,71.82
2023-03-29T06:51:10.459Z,71.73
2023-03-29T06:53:36.757Z,71.59
2023-03-29T06:56:03.845Z,71.21
2023-03-29T06:58:30.161Z,70.75
2023-03-29T07:01:00.807Z,69.71
2023-03-29T07:03:27.585Z,70.00
2023-03-29T07:05:54.004Z,70.16
2023-03-29T07:08:20.518Z,69.94
2023-03-29T07:10:50.629Z,69.56
2023-03-29T07:13:16.899Z,69.77
2023-03-29T07:15:43.850Z,69.57
2023-03-29T07:18:11.012Z,69.00
2023-03-29T07:20:37.343Z,68.56
2023-03-29T07:23:04.024Z,68.14
2023-03-29T07:25:30.354Z,68.74
2023-03-29T07:27:56.931Z,68.15
2023-03-29T07:30:26.224Z,67.58
2023-03-29T07:32:52.654Z,67.79
2023-03-29T07:35:19.542Z,67.18
2023-03-29T07:37:48.067Z,67.14
2023-03-29T07:40:17.109Z,66.94
2023-03-29T07:42:45.047Z,67.12
2023-03-29T07:45:12.934Z,66.31
2023-03-29T07:47:43.304Z,65.34
2023-03-29T07:50:10.134Z,65.34
2023-03-29T07:52:37.753Z,64.52
2023-03-29T07:55:08.579Z,63.47
2023-03-29T07:57:35.856Z,64.97
2023-03-29T08:00:02.503Z,64.76
2023-03-29T08:02:28.910Z,64.53
2023-03-29T08:04:55.315Z,63.23
2023-03-29T08:07:21.662Z,63.60
2023-03-29T08:09:47.949Z,63.82
2023-03-29T08:12:14.283Z,63.80
2023-03-29T08:14:40.666Z,63.81
2023-03-29T08:17:07.118Z,61.50
2023-03-29T08:19:33.582Z,61.22
2023-03-29T08:22:00.659Z,61.84
2023-03-29T08:24:27.064Z,61.51
2023-03-29T08:26:53.360Z,62.82
2023-03-29T08:29:19.770Z,62.30
2023-03-29T08:31:46.074Z,61.76
2023-03-29T08:34:13.731Z,61.28
2023-03-29T08:36:40.165Z,62.24
2023-03-29T08:39:06.471Z,61.64
2023-03-29T08:41:38.834Z,61.15
2023-03-29T08:44:22.257Z,60.96
2023-03-29T08:47:12.622Z,60.92
2023-03-29T08:49:42.119Z,61.24
2023-03-29T08:52:21.055Z,56.63
2023-03-29T08:54:52.954Z,54.51
2023-03-29T08:57:24.562Z,55.41
2023-03-29T08:59:53.453Z,53.45
2023-03-29T09:02:33.433Z,53.63
2023-03-29T09:05:18.072Z,53.05
2023-03-29T09:07:44.415Z,54.30
2023-03-29T09:10:16.713Z,53.11
2023-03-29T09:13:19.166Z,52.87
2023-03-29T09:16:04.647Z,51.79
2023-03-29T09:18:51.701Z,50.21
2023-03-29T09:21:30.440Z,49.67
2023-03-29T09:24:07.006Z,49.25
2023-03-29T09:26:41.715Z,49.88
2023-03-29T09:29:27.270Z,48.36
2023-03-29T09:31:55.619Z,49.44
2023-03-29T09:34:31.679Z,48.35
2023-03-29T09:37:07.942Z,45.89
2023-03-29T09:39:34.283Z,46.28
2023-03-29T09:42:06.326Z,45.82
2023-03-29T09:44:40.459Z,44.06
2023-03-29T09:47:29.844Z,44.98
2023-03-29T09:50:02.487Z,45.59
2023-03-29T09:52:28.869Z,46.69
2023-03-29T09:54:55.181Z,45.55
2023-03-29T09:57:21.538Z,46.38
2023-03-29T09:59:50.687Z,45.36
2023-03-29T10:02:19.242Z,45.30
2023-03-29T10:04:45.568Z,45.99
2023-03-29T10:07:19.723Z,44.97
2023-03-29T10:09:48.673Z,44.95
2023-03-29T10:12:16.190Z,44.84
2023-03-29T10:14:46.120Z,44.60
2023-03-29T10:17:24.639Z,45.22
2023-03-29T10:20:04.519Z,43.89
2023-03-29T10:22:36.257Z,43.72
2023-03-29T10:25:03.201Z,44.80
2023-03-29T10:27:32.552Z,42.69
2023-03-29T10:30:00.999Z,43.30
2023-03-29T10:32:38.021Z,43.81
2023-03-29T10:35:16.273Z,44.37
2023-03-29T10:37:44.811Z,45.16
2023-03-29T10:40:33.330Z,44.03
2023-03-29T10:43:01.750Z,44.91
2023-03-29T10:45:34.678Z,44.82
2023-03-29T10:48:03.639Z,45.10
2023-03-29T10:50:35.838Z,43.77
2023-03-29T10:53:03.288Z,44.29
2023-03-29T10:55:37.115Z,42.93
2023-03-29T10:58:31.508Z,42.24
2023-03-29T11:00:58.152Z,42.88
2023-03-29T11:03:42.954Z,42.80
2023-03-29T11:06:56.078Z,42.70
2023-03-29T11:09:40.345Z,43.23
2023-03-29T11:12:26.868Z,42.43
2023-03-29T11:15:11.629Z,43.12
2023-03-29T11:17:53.355Z,43.10
2023-03-29T11:20:28.712Z,41.98
2023-03-29T11:23:27.542Z,42.57
2023-03-29T11:26:23.777Z,43.26
2023-03-29T11:29:06.370Z,43.20
2023-03-29T11:31:32.870Z,43.07
2023-03-29T11:34:20.674Z,43.16
2023-03-29T11:36:53.585Z,43.78
2023-03-29T11:39:30.360Z,43.22
2023-03-29T11:42:06.157Z,43.86
2023-03-29T11:44:35.339Z,44.28
2023-03-29T11:47:12.710Z,43.56
2023-03-29T11:50:17.641Z,43.44
2023-03-29T11:52:51.166Z,44.46
2023-03-29T11:55:25.447Z,42.29
2023-03-29T11:57:55.833Z,42.59
2023-03-29T12:00:38.065Z,42.28
2023-03-29T12:03:07.335Z,43.14
2023-03-29T12:05:45.528Z,44.58
2023-03-29T12:08:18.650Z,45.33
2023-03-29T12:11:12.869Z,45.82
2023-03-29T12:14:01.696Z,45.76
2023-03-29T12:16:35.107Z,46.72
2023-03-29T12:19:13.360Z,46.82
2023-03-29T12:21:41.320Z,47.39
2023-03-29T12:24:12.500Z,47.04
2023-03-29T12:27:20.213Z,47.05
2023-03-29T12:30:20.399Z,47.48
2023-03-29T12:32:58.316Z,47.18
2023-03-29T12:35:49.410Z,46.40
2023-03-29T12:38:20.928Z,45.91
2023-03-29T12:40:53.996Z,46.29
2023-03-29T12:43:30.329Z,46.75
2023-03-29T12:46:08.765Z,46.78
2023-03-29T12:48:38.884Z,47.74
2023-03-29T12:51:11.779Z,48.54
2023-03-29T12:53:42.097Z,49.12
2023-03-29T12:56:17.761Z,48.94
2023-03-29T12:58:53.047Z,48.67
2023-03-29T13:02:11.822Z,48.92
2023-03-29T13:04:50.308Z,47.83
2023-03-29T13:07:22.505Z,47.17
2023-03-29T13:09:51.849Z,46.91
2023-03-29T13:12:25.684Z,47.12
2023-03-29T13:15:07.821Z,47.38
2023-03-29T13:17:36.641Z,47.95
2023-03-29T13:20:32.002Z,47.58
2023-03-29T13:23:30.481Z,47.60
2023-03-29T13:26:20.800Z,46.45
2023-03-29T13:29:14.365Z,47.28
2023-03-29T13:31:49.752Z,47.88
2023-03-29T13:34:37.090Z,48.09
2023-03-29T13:37:22.763Z,46.98
2023-03-29T13:39:54.604Z,46.24
2023-03-29T13:42:32.983Z,46.31
2023-03-29T13:45:29.745Z,46.20
2023-03-29T13:48:28.116Z,46.05
2023-03-29T13:50:57.316Z,46.07
2023-03-29T13:53:32.507Z,44.62
2023-03-29T13:55:59.606Z,44.31
2023-03-29T13:58:47.706Z,45.85
2023-03-29T14:01:27.287Z,45.09
2023-03-29T14:03:55.333Z,46.58
2023-03-29T14:06:26.558Z,46.59
2023-03-29T14:08:54.107Z,45.60
2023-03-29T14:11:29.485Z,45.95
2023-03-29T14:13:58.541Z,46.35
2023-03-29T14:16:39.814Z,46.02
2023-03-29T14:19:15.325Z,44.82
2023-03-29T14:21:43.588Z,45.35
2023-03-29T14:24:20.480Z,45.55
2023-03-29T14:26:47.755Z,45.13
2023-03-29T14:29:14.516Z,44.74
2023-03-29T14:31:42.277Z,45.31
2023-03-29T14:34:17.182Z,46.18
2023-03-29T14:36:45.580Z,46.07
2023-03-29T14:39:23.193Z,45.85
2023-03-29T14:41:53.878Z,46.08
2023-03-29T14:44:21.978Z,45.84
2023-03-29T14:46:48.375Z,45.91
2023-03-29T14:49:20.481Z,45.19
2023-03-29T14:51:47.938Z,46.10
2023-03-29T14:54:24.885Z,44.56
2023-03-29T14:56:52.002Z,43.93
2023-03-29T14:59:37.727Z,43.31
2023-03-29T15:02:04.985Z,43.40
2023-03-29T15:04:35.153Z,42.63
2023-03-29T15:07:05.896Z,43.11
2023-03-29T15:09:34.379Z,43.90
2023-03-29T15:12:02.523Z,43.50
2023-03-29T15:14:32.460Z,43.05
2023-03-29T15:17:09.566Z,43.83
2023-03-29T15:19:36.258Z,43.76
2023-03-29T15:22:07.644Z,44.13
2023-03-29T15:24:34.036Z,44.38
2023-03-29T15:27:10.933Z,44.99
2023-03-29T15:29:40.165Z,45.04
2023-03-29T15:32:06.595Z,45.06
2023-03-29T15:34:33.539Z,45.02
2023-03-29T15:37:01.473Z,44.75
2023-03-29T15:39:29.048Z,45.13
2023-03-29T15:41:56.933Z,45.40
2023-03-29T15:44:27.981Z,45.39
2023-03-29T15:46:55.226Z,45.22
2023-03-29T15:49:21.636Z,45.02
2023-03-29T15:51:47.958Z,44.91
2023-03-29T15:54:14.373Z,44.88
2023-03-29T15:56:48.756Z,44.84
2023-03-29T15:59:15.392Z,45.49
2023-03-29T16:01:42.015Z,45.05
2023-03-29T16:04:14.628Z,45.45
2023-03-29T16:06:42.642Z,46.11
2023-03-29T16:09:09.259Z,46.54
2023-03-29T16:11:35.714Z,47.48
2023-03-29T16:14:02.193Z,46.79
2023-03-29T16:16:28.697Z,47.14
2023-03-29T16:18:55.019Z,47.67
2023-03-29T16:21:22.167Z,47.80
2023-03-29T16:23:48.512Z,47.15
2023-03-29T16:26:16.713Z,47.83
2023-03-29T16:28:43.499Z,48.07
2023-03-29T16:31:11.649Z,47.79
2023-03-29T16:33:38.699Z,47.59
2023-03-29T16:36:05.615Z,47.88
2023-03-29T16:38:32.070Z,47.93
2023-03-29T16:40:58.402Z,47.89
2023-03-29T16:43:24.729Z,48.16
2023-03-29T16:45:51.076Z,48.05
2023-03-29T16:48:19.039Z,47.98
2023-03-29T16:50:46.322Z,47.80
2023-03-29T16:53:12.565Z,48.07
2023-03-29T16:55:38.875Z,48.27
2023-03-29T16:58:05.171Z,47.87
2023-03-29T17:00:31.958Z,48.07
2023-03-29T17:02:58.361Z,48.79
2023-03-29T17:05:24.681Z,48.40
2023-03-29T17:07:50.990Z,48.58
2023-03-29T17:10:17.285Z,48.79
2023-03-29T17:12:43.647Z,48.95
2023-03-29T17:15:10.405Z,49.40
2023-03-29T17:17:37.100Z,49.46
2023-03-29T17:20:05.990Z,49.76
2023-03-29T17:22:32.292Z,49.79
2023-03-29T17:24:58.636Z,49.92
2023-03-29T17:27:25.014Z,49.66
2023-03-29T17:29:51.329Z,50.58
2023-03-29T17:32:17.687Z,50.69
2023-03-29T17:34:44.155Z,50.35
2023-03-29T17:37:10.437Z,50.54
2023-03-29T17:39:36.765Z,50.87
2023-03-29T17:42:04.412Z,50.98
2023-03-29T17:44:30.843Z,51.23
2023-03-29T17:46:57.252Z,51.30
2023-03-29T17:49:23.616Z,51.31
2023-03-29T17:51:50.192Z,52.05
2023-03-29T17:54:16.649Z,52.16
2023-03-29T17:56:43.027Z,52.79
2023-03-29T17:59:09.398Z,52.75
2023-03-29T18:01:38.548Z,53.08
2023-03-29T18:04:05.612Z,52.99
2023-03-29T18:06:32.005Z,53.42
2023-03-29T18:08:58.355Z,53.29
2023-03-29T18:11:24.736Z,53.93
2023-03-29T18:13:52.160Z,54.09
2023-03-29T18:16:22.046Z,55.37
2023-03-29T18:18:48.676Z,55.08
2023-03-29T18:21:16.966Z,55.37
2023-03-29T18:23:47.937Z,57.04
2023-03-29T18:26:16.117Z,56.70
2023-03-29T18:28:44.990Z,56.75
2023-03-29T18:31:11.278Z,56.93
2023-03-29T18:33:37.622Z,57.80
2023-03-29T18:36:07.726Z,57.69
2023-03-29T18:38:35.793Z,57.77
2023-03-29T18:41:03.869Z,58.84
2023-03-29T18:43:31.906Z,59.57
2023-03-29T18:45:58.467Z,59.80
2023-03-29T18:48:25.329Z,59.66
2023-03-29T18:50:52.001Z,59.33
2023-03-29T18:53:18.888Z,59.05
2023-03-29T18:55:45.727Z,58.89
2023-03-29T18:58:13.707Z,58.76
2023-03-29T19:00:41.355Z,58.92
2023-03-29T19:03:08.755Z,58.75
2023-03-29T19:05:39.575Z,60.06
2023-03-29T19:08:06.926Z,58.70
2023-03-29T19:10:37.094Z,58.69
2023-03-29T19:13:03.782Z,59.11
2023-03-29T19:15:31.070Z,60.35
2023-03-29T19:17:57.331Z,60.90
2023-03-29T19:20:23.872Z,59.28
2023-03-29T19:22:50.183Z,59.31
2023-03-29T19:25:16.558Z,59.36
2023-03-29T19:27:42.914Z,59.35
2023-03-29T19:30:09.819Z,58.91
2023-03-29T19:32:36.155Z,58.72
2023-03-29T19:35:02.516Z,58.89
2023-03-29T19:37:28.865Z,58.79
2023-03-29T19:39:55.156Z,58.78
2023-03-29T19:42:21.530Z,58.99
2023-03-29T19:44:47.843Z,58.96
2023-03-29T19:47:14.168Z,59.02
2023-03-29T19:49:40.740Z,59.36
2023-03-29T19:52:07.254Z,59.68
2023-03-29T19:54:33.718Z,59.38
2023-03-29T19:57:00.078Z,59.56
2023-03-29T19:59:26.821Z,59.36
2023-03-29T20:01:53.868Z,59.77
2023-03-29T20:04:21.695Z,59.86
2023-03-29T20:06:48.610Z,60.36
2023-03-29T20:09:15.260Z,60.12
2023-03-29T20:11:42.484Z,60.65
2023-03-29T20:14:08.795Z,60.57
2023-03-29T20:16:35.285Z,60.83
2023-03-29T20:19:02.556Z,60.87
2023-03-29T20:21:29.465Z,61.85
2023-03-29T20:23:56.000Z,61.89
2023-03-29T20:26:22.602Z,61.57
2023-03-29T20:28:49.070Z,61.72
2023-03-29T20:31:15.516Z,62.10
2023-03-29T20:33:41.874Z,63.11
2023-03-29T20:36:08.475Z,62.58
2023-03-29T20:38:35.096Z,63.95
2023-03-29T20:41:02.556Z,62.52
2023-03-29T20:43:29.417Z,62.51
2023-03-29T20:45:55.746Z,62.83
2023-03-29T20:48:23.319Z,62.44
2023-03-29T20:50:50.429Z,63.51
2023-03-29T20:53:16.829Z,62.61
2023-03-29T20:55:43.195Z,62.58
2023-03-29T20:58:09.804Z,62.12
2023-03-29T21:00:36.117Z,62.12
2023-03-29T21:03:02.499Z,62.38
2023-03-29T21:05:31.830Z,62.76
2023-03-29T21:07:58.513Z,63.08
2023-03-29T21:10:26.572Z,63.79
2023-03-29T21:12:52.972Z,65.01
2023-03-29T21:15:19.272Z,63.73
2023-03-29T21:17:46.074Z,63.58
2023-03-29T21:20:13.672Z,63.51
2023-03-29T21:22:41.475Z,63.14
2023-03-29T21:25:12.680Z,64.05
2023-03-29T21:27:38.963Z,63.63
2023-03-29T21:30:06.408Z,64.20
2023-03-29T21:32:32.871Z,63.91
2023-03-29T21:34:59.282Z,64.17
2023-03-29T21:37:26.011Z,63.55
2023-03-29T21:39:52.317Z,65.07
2023-03-29T21:42:18.720Z,64.66
2023-03-29T21:44:45.132Z,63.97
2023-03-29T21:47:11.464Z,64.88
2023-03-29T21:49:37.938Z,64.51
2023-03-29T21:52:04.356Z,64.62
2023-03-29T21:54:30.660Z,64.63
2023-03-29T21:56:56.978Z,65.31
2023-03-29T21:59:23.421Z,64.58
2023-03-29T22:01:49.754Z,64.91
2023-03-29T22:04:25.792Z,65.07
2023-03-29T22:06:59.898Z,65.11
2023-03-29T22:09:26.195Z,65.35
2023-03-29T22:11:53.021Z,65.33
2023-03-29T22:14:19.497Z,65.23
2023-03-29T22:16:46.055Z,65.63
2023-03-29T22:19:12.452Z,65.69
2023-03-29T22:21:38.751Z,65.73
2023-03-29T22:24:05.362Z,65.65
2023-03-29T22:26:32.907Z,66.02
2023-03-29T22:29:00.499Z,65.14
2023-03-29T22:31:28.485Z,65.03
2023-03-29T22:33:55.558Z,65.41
2023-03-29T22:36:28.266Z,64.90
2023-03-29T22:38:55.522Z,65.26
2023-03-29T22:41:24.026Z,66.36
2023-03-29T22:43:55.583Z,65.69
2023-03-29T22:46:22.762Z,65.19
2023-03-29T22:48:49.475Z,65.72
2023-03-29T22:51:16.434Z,65.32
2023-03-29T22:53:43.868Z,65.05
2023-03-29T22:56:10.306Z,66.34
2023-03-29T22:58:37.435Z,65.56
2023-03-29T23:01:05.025Z,66.09
2023-03-29T23:03:32.122Z,65.28
2023-03-29T23:06:00.051Z,65.81
2023-03-29T23:08:26.679Z,65.47
2023-03-29T23:10:53.341Z,65.17
2023-03-29T23:13:20.038Z,65.52
2023-03-29T23:15:49.265Z,65.73
2023-03-29T23:18:17.839Z,65.82
2023-03-29T23:20:44.777Z,64.92
2023-03-29T23:23:11.375Z,64.87
2023-03-29T23:25:37.850Z,65.90
2023-03-29T23:28:04.840Z,65.04
2023-03-29T23:30:31.378Z,65.96
2023-03-29T23:32:58.267Z,65.20
2023-03-29T23:35:25.020Z,65.03
2023-03-29T23:37:51.729Z,65.90
2023-03-29T23:40:18.577Z,65.41
2023-03-29T23:42:46.393Z,65.08
2023-03-29T23:45:15.861Z,65.97
2023-03-29T23:47:43.191Z,65.28
2023-03-29T23:50:10.377Z,66.51
2023-03-29T23:52:37.115Z,66.24
2023-03-29T23:55:04.295Z,66.58
2023-03-29T23:57:31.102Z,66.11
2023-03-29T23:59:57.669Z,65.58
